createdAt,value
2018-09-20T00:02:09.824Z,100253.23
2018-09-20T00:04:44.276Z,100248.63
2018-09-20T00:07:17.436Z,100243.49
2018-09-20T00:09:52.335Z,100241.09
2018-09-20T00:12:24.858Z,100240.68
2018-09-20T00:15:00.540Z,100237.66
2018-09-20T00:17:35.536Z,100231.89
2018-09-20T00:20:09.768Z,100233.28
2018-09-20T00:22:44.429Z,100230.22
2018-09-20T00:25:17.848Z,100228.53
2018-09-20T00:27:50.565Z,100225.50
2018-09-20T00:30:23.317Z,100223.64
2018-09-20T00:32:56.886Z,100223.95
2018-09-20T00:35:31.024Z,100219.81
2018-09-20T00:38:04.156Z,100223.06
2018-09-20T00:40:36.837Z,100217.58
2018-09-20T00:43:11.047Z,100214.39
2018-09-20T00:45:44.158Z,100209.68
2018-09-20T00:48:16.645Z,100215.05
2018-09-20T00:50:49.251Z,100215.58
2018-09-20T00:53:23.024Z,100212.34
2018-09-20T00:55:55.717Z,100207.98
2018-09-20T00:58:29.814Z,100201.08
2018-09-20T01:01:02.993Z,100201.25
2018-09-20T01:03:35.461Z,100205.86
2018-09-20T01:06:09.396Z,100205.64
2018-09-20T01:08:42.174Z,100210.19
2018-09-20T01:11:14.883Z,100209.06
2018-09-20T01:13:48.184Z,100214.73
2018-09-20T01:16:43.352Z,100214.78
2018-09-20T01:19:15.716Z,100219.41
2018-09-20T01:21:49.012Z,100214.25
2018-09-20T01:24:24.640Z,100216.54
2018-09-20T01:26:57.824Z,100213.71
2018-09-20T01:29:30.165Z,100213.42
2018-09-20T01:32:03.963Z,100211.99
2018-09-20T01:34:36.320Z,100214.09
2018-09-20T01:37:08.792Z,100222.33
2018-09-20T01:39:41.421Z,100218.19
2018-09-20T01:42:14.148Z,100217.81
2018-09-20T01:44:46.987Z,100219.91
2018-09-20T01:47:21.814Z,100221.33
2018-09-20T01:53:06.540Z,100218.20
2018-09-20T01:55:39.020Z,100216.95
2018-09-20T01:58:11.592Z,100214.66
2018-09-20T02:00:44.416Z,100216.90
2018-09-20T02:03:18.425Z,100216.48
2018-09-20T02:05:50.993Z,100219.02
2018-09-20T02:08:25.259Z,100219.17
2018-09-20T02:10:57.801Z,100221.73
2018-09-20T02:13:31.182Z,100219.42
2018-09-20T02:16:04.219Z,100222.26
2018-09-20T02:18:37.161Z,100220.23
2018-09-20T02:21:09.697Z,100226.45
2018-09-20T02:23:42.732Z,100221.75
2018-09-20T02:26:15.509Z,100218.62
2018-09-20T02:28:49.024Z,100226.38
2018-09-20T02:31:23.613Z,100232.38
2018-09-20T02:33:56.278Z,100229.10
2018-09-20T02:36:28.932Z,100234.77
2018-09-20T02:39:02.648Z,100233.42
2018-09-20T02:41:36.551Z,100236.27
2018-09-20T02:44:09.060Z,100237.69
2018-09-20T02:46:41.806Z,100238.03
2018-09-20T02:49:14.413Z,100236.55
2018-09-20T02:51:47.052Z,100229.66
2018-09-20T02:54:23.008Z,100226.64
2018-09-20T02:56:55.660Z,100226.91
2018-09-20T02:59:29.176Z,100226.52
2018-09-20T03:02:03.823Z,100225.19
2018-09-20T03:04:36.913Z,100222.91
2018-09-20T03:07:09.658Z,100221.17
2018-09-20T03:09:42.613Z,100223.96
2018-09-20T03:12:15.221Z,100222.75
2018-09-20T03:14:47.713Z,100216.70
2018-09-20T03:17:20.808Z,100220.00
2018-09-20T03:19:53.884Z,100213.45
2018-09-20T03:22:26.570Z,100214.91
2018-09-20T03:24:59.581Z,100219.27
2018-09-20T03:27:32.129Z,100210.92
2018-09-20T03:30:06.238Z,100219.57
2018-09-20T03:32:40.144Z,100219.31
2018-09-20T03:35:13.322Z,100217.41
2018-09-20T03:37:45.888Z,100216.09
2018-09-20T03:40:20.448Z,100222.67
2018-09-20T03:42:56.930Z,100226.03
2018-09-20T03:45:32.466Z,100219.51
2018-09-20T03:48:06.142Z,100217.03
2018-09-20T03:50:38.911Z,100217.44
2018-09-20T03:53:11.644Z,100218.58
2018-09-20T03:55:44.388Z,100216.73
2018-09-20T03:58:16.968Z,100217.78
2018-09-20T04:00:54.008Z,100216.81
2018-09-20T04:03:27.617Z,100217.28
2018-09-20T04:06:00.018Z,100217.32
2018-09-20T04:08:35.739Z,100214.47
2018-09-20T04:11:08.440Z,100209.88
2018-09-20T04:13:42.699Z,100215.53
2018-09-20T04:16:16.336Z,100210.73
2018-09-20T04:18:49.059Z,100213.45
2018-09-20T04:21:33.289Z,100210.27
2018-09-20T04:24:06.933Z,100209.53
2018-09-20T04:26:40.100Z,100212.19
2018-09-20T04:29:13.665Z,100211.92
2018-09-20T04:31:46.953Z,100208.47
2018-09-20T04:34:21.448Z,100202.66
2018-09-20T04:36:55.336Z,100208.09
2018-09-20T04:39:28.814Z,100213.77
2018-09-20T04:42:01.517Z,100218.80
2018-09-20T04:44:34.084Z,100219.49
2018-09-20T04:47:08.330Z,100218.98
2018-09-20T04:49:40.865Z,100226.72
2018-09-20T04:52:14.409Z,100221.91
2018-09-20T04:54:47.444Z,100226.10
2018-09-20T04:57:20.006Z,100224.42
2018-09-20T04:59:55.614Z,100224.28
2018-09-20T05:02:28.497Z,100226.36
2018-09-20T05:05:01.257Z,100224.10
2018-09-20T05:07:34.328Z,100221.69
2018-09-20T05:10:10.313Z,100220.67
2018-09-20T05:12:42.889Z,100219.06
2018-09-20T05:15:16.636Z,100220.81
2018-09-20T05:17:51.553Z,100219.61
2018-09-20T05:20:25.096Z,100220.59
2018-09-20T05:23:00.190Z,100220.78
2018-09-20T05:25:33.967Z,100221.36
2018-09-20T05:28:07.058Z,100215.42
2018-09-20T05:30:42.644Z,100217.63
2018-09-20T05:33:16.633Z,100220.72
2018-09-20T05:35:49.786Z,100221.97
2018-09-20T05:38:22.820Z,100215.16
2018-09-20T05:40:57.285Z,100212.73
2018-09-20T05:43:30.055Z,100212.63
2018-09-20T05:46:03.145Z,100206.04
2018-09-20T05:48:36.844Z,100208.19
2018-09-20T05:51:09.605Z,100211.45
2018-09-20T05:53:43.623Z,100212.95
2018-09-20T05:56:16.092Z,100213.09
2018-09-20T05:58:48.981Z,100214.38
2018-09-20T06:01:21.676Z,100219.34
2018-09-20T06:03:54.856Z,100217.05
2018-09-20T06:06:27.720Z,100216.98
2018-09-20T06:09:01.707Z,100222.30
2018-09-20T06:11:34.936Z,100224.31
2018-09-20T06:14:09.095Z,100226.23
2018-09-20T06:16:43.403Z,100221.62
2018-09-20T06:19:15.885Z,100217.47
2018-09-20T06:21:48.512Z,100215.11
2018-09-20T06:24:21.404Z,100209.45
2018-09-20T06:26:55.024Z,100221.14
2018-09-20T06:29:28.894Z,100213.28
2018-09-20T06:32:01.552Z,100214.20
2018-09-20T06:34:35.718Z,100221.89
2018-09-20T06:37:08.264Z,100228.56
2018-09-20T06:39:43.756Z,100237.91
2018-09-20T06:42:16.265Z,100237.18
2018-09-20T06:44:49.372Z,100235.52
2018-09-20T06:47:24.155Z,100237.92
2018-09-20T06:49:59.224Z,100235.88
2018-09-20T06:52:31.780Z,100232.88
2018-09-20T06:55:05.105Z,100230.69
2018-09-20T06:57:37.781Z,100229.63
2018-09-20T07:00:10.583Z,100226.00
2018-09-20T07:02:44.242Z,100223.14
2018-09-20T07:05:16.867Z,100215.12
2018-09-20T07:07:50.317Z,100217.45
2018-09-20T07:10:26.129Z,100217.98
2018-09-20T07:12:59.700Z,100215.09
2018-09-20T07:15:34.926Z,100221.91
2018-09-20T07:18:07.696Z,100208.56
2018-09-20T07:20:41.177Z,100221.77
2018-09-20T07:23:15.823Z,100220.11
2018-09-20T07:25:50.149Z,100225.63
2018-09-20T07:28:24.224Z,100218.25
2018-09-20T07:30:57.731Z,100221.20
2018-09-20T07:33:34.272Z,100212.46
2018-09-20T07:36:08.995Z,100213.47
2018-09-20T07:38:42.068Z,100212.12
2018-09-20T07:41:17.381Z,100215.09
2018-09-20T07:43:51.611Z,100217.41
2018-09-20T07:46:33.569Z,100218.34
2018-09-20T07:49:07.635Z,100219.00
2018-09-20T07:51:41.344Z,100211.90
2018-09-20T07:54:14.010Z,100214.31
2018-09-20T07:56:46.814Z,100223.83
2018-09-20T07:59:19.885Z,100223.06
2018-09-20T08:01:52.490Z,100224.25
2018-09-20T08:04:25.715Z,100223.59
2018-09-20T08:06:58.529Z,100225.55
2018-09-20T08:09:31.245Z,100226.64
2018-09-20T08:12:04.254Z,100232.67
2018-09-20T08:14:41.821Z,100232.44
2018-09-20T08:17:17.703Z,100232.78
2018-09-20T08:19:53.764Z,100236.98
2018-09-20T08:22:26.464Z,100232.96
2018-09-20T08:25:01.695Z,100238.86
2018-09-20T08:27:36.456Z,100237.67
2018-09-20T08:30:09.093Z,100229.75
2018-09-20T08:32:43.685Z,100231.39
2018-09-20T08:35:17.298Z,100233.37
2018-09-20T08:37:51.049Z,100230.87
2018-09-20T08:40:26.688Z,100225.08
2018-09-20T08:43:01.308Z,100231.86
2018-09-20T08:45:36.701Z,100231.98
2018-09-20T08:48:09.937Z,100229.80
2018-09-20T08:50:42.388Z,100235.27
2018-09-20T08:53:15.056Z,100233.42
2018-09-20T08:55:54.824Z,100223.78
2018-09-20T08:58:31.352Z,100229.77
2018-09-20T09:01:04.520Z,100233.86
2018-09-20T09:03:41.020Z,100227.81
2018-09-20T09:06:14.348Z,100226.83
2018-09-20T09:08:47.566Z,100221.91
2018-09-20T09:11:22.993Z,100218.14
2018-09-20T09:13:56.946Z,100216.20
2018-09-20T09:16:30.322Z,100217.61
2018-09-20T09:19:03.483Z,100220.83
2018-09-20T09:21:37.480Z,100215.69
2018-09-20T09:24:11.017Z,100209.09
2018-09-20T09:26:44.677Z,100195.91
2018-09-20T09:29:26.596Z,100191.89
2018-09-20T09:31:59.152Z,100191.52
2018-09-20T09:34:33.838Z,100191.30
2018-09-20T09:37:06.164Z,100188.31
2018-09-20T09:39:38.777Z,100188.59
2018-09-20T09:42:15.900Z,100183.30
2018-09-20T09:44:48.404Z,100183.70
2018-09-20T09:47:20.972Z,100178.86
2018-09-20T09:49:53.548Z,100188.36
2018-09-20T09:52:26.201Z,100188.54
2018-09-20T09:55:07.033Z,100175.56
2018-09-20T09:57:40.983Z,100176.84
2018-09-20T10:00:42.753Z,100169.11
2018-09-20T10:03:18.462Z,100169.76
2018-09-20T10:05:53.899Z,100173.80
2018-09-20T10:08:26.897Z,100172.16
2018-09-20T10:11:00.069Z,100164.46
2018-09-20T10:13:33.115Z,100163.05
2018-09-20T10:16:07.460Z,100157.12
2018-09-20T10:18:43.933Z,100160.92
2018-09-20T10:21:18.188Z,100162.04
2018-09-20T10:23:54.145Z,100156.63
2018-09-20T10:26:28.386Z,100153.66
2018-09-20T10:29:02.858Z,100153.59
2018-09-20T10:31:37.445Z,100146.24
2018-09-20T10:34:10.174Z,100154.09
2018-09-20T10:36:43.397Z,100156.20
2018-09-20T10:39:16.383Z,100155.00
2018-09-20T10:41:51.518Z,100140.07
2018-09-20T10:44:32.901Z,100137.81
2018-09-20T10:47:07.125Z,100127.12
2018-09-20T10:49:41.224Z,100126.82
2018-09-20T10:52:15.904Z,100117.56
2018-09-20T10:54:54.606Z,100119.34
2018-09-20T10:57:28.333Z,100120.47
2018-09-20T11:00:03.956Z,100118.42
2018-09-20T11:02:37.642Z,100109.96
2018-09-20T11:05:11.443Z,100113.84
2018-09-20T11:07:46.892Z,100118.87
2018-09-20T11:10:19.801Z,100111.33
2018-09-20T11:12:53.055Z,100106.92
2018-09-20T11:15:30.066Z,100107.91
2018-09-20T11:18:02.790Z,100103.89
2018-09-20T11:20:35.350Z,100096.91
2018-09-20T11:23:10.743Z,100093.14
2018-09-20T11:25:43.930Z,100088.98
2018-09-20T11:28:17.029Z,100099.34
2018-09-20T11:30:50.041Z,100090.09
2018-09-20T11:33:23.818Z,100081.51
2018-09-20T11:35:57.129Z,100086.07
2018-09-20T11:38:32.516Z,100090.14
2018-09-20T11:41:05.037Z,100084.05
2018-09-20T11:43:38.670Z,100081.05
2018-09-20T11:46:12.777Z,100078.41
2018-09-20T11:48:46.052Z,100078.27
2018-09-20T11:51:19.996Z,100076.67
2018-09-20T11:53:54.850Z,100082.86
2018-09-20T11:56:27.772Z,100078.94
2018-09-20T11:59:00.519Z,100077.58
2018-09-20T12:01:34.732Z,100083.69
2018-09-20T12:04:07.472Z,100070.91
2018-09-20T12:06:40.217Z,100076.29
2018-09-20T12:09:16.649Z,100071.45
2018-09-20T12:11:49.510Z,100062.30
2018-09-20T12:14:26.011Z,100068.55
2018-09-20T12:16:58.821Z,100062.25
2018-09-20T12:19:32.647Z,100063.00
2018-09-20T12:22:12.092Z,100057.45
2018-09-20T12:24:49.544Z,100053.70
2018-09-20T12:27:24.535Z,100054.28
2018-09-20T12:30:00.455Z,100050.12
2018-09-20T12:32:35.590Z,100042.12
2018-09-20T12:35:11.577Z,100035.88
2018-09-20T12:37:55.763Z,100042.86
2018-09-20T12:40:40.164Z,100033.05
2018-09-20T12:43:18.046Z,100027.77
2018-09-20T12:45:57.713Z,100017.36
2018-09-20T12:48:38.008Z,100022.92
2018-09-20T12:51:18.816Z,100014.97
2018-09-20T12:54:01.120Z,100011.54
2018-09-20T12:56:39.663Z,100012.39
2018-09-20T12:59:25.576Z,100004.24
2018-09-20T13:01:58.775Z,99999.47
2018-09-20T13:04:32.508Z,99989.14
2018-09-20T13:07:21.212Z,99993.89
2018-09-20T13:10:16.470Z,99988.84
2018-09-20T13:12:50.099Z,99986.20
2018-09-20T13:15:24.533Z,99981.52
2018-09-20T13:17:59.999Z,99981.33
2018-09-20T13:20:36.754Z,99974.01
2018-09-20T13:23:09.724Z,99975.23
2018-09-20T13:25:43.609Z,99976.63
2018-09-20T13:28:18.261Z,99982.42
2018-09-20T13:30:54.528Z,99976.83
2018-09-20T13:33:30.128Z,99980.38
2018-09-20T13:36:02.821Z,99977.53
2018-09-20T13:38:38.498Z,99964.33
2018-09-20T13:41:16.754Z,99966.14
2018-09-20T13:43:50.980Z,99957.73
2018-09-20T13:46:24.143Z,99961.69
2018-09-20T13:48:56.705Z,99959.27
2018-09-20T13:51:32.753Z,99959.22
2018-09-20T13:54:07.054Z,99958.23
2018-09-20T13:56:40.742Z,99949.95
2018-09-20T13:59:17.189Z,99949.09
2018-09-20T14:01:51.058Z,99942.38
2018-09-20T14:04:23.690Z,99933.16
2018-09-20T14:06:57.089Z,99929.19
2018-09-20T14:09:33.452Z,99928.17
2018-09-20T14:12:08.974Z,99924.02
2018-09-20T14:14:43.068Z,99916.47
2018-09-20T14:17:16.784Z,99914.38
2018-09-20T14:19:52.309Z,99908.87
2018-09-20T14:22:28.814Z,99915.80
2018-09-20T14:25:03.616Z,99914.31
2018-09-20T14:27:36.281Z,99903.27
2018-09-20T14:30:12.796Z,99899.24
2018-09-20T14:32:48.651Z,99895.59
2018-09-20T14:35:25.916Z,99891.41
2018-09-20T14:38:09.591Z,99885.61
2018-09-20T14:40:42.999Z,99878.99
2018-09-20T14:43:20.360Z,99873.63
2018-09-20T14:45:54.409Z,99867.67
2018-09-20T14:48:30.173Z,99865.84
2018-09-20T14:51:05.256Z,99860.98
2018-09-20T14:53:41.362Z,99858.35
2018-09-20T14:56:20.703Z,99846.37
2018-09-20T14:58:55.217Z,99849.22
2018-09-20T15:01:29.628Z,99840.27
2018-09-20T15:04:02.178Z,99835.86
2018-09-20T15:06:34.757Z,99835.09
2018-09-20T15:09:12.628Z,99825.70
2018-09-20T15:11:46.856Z,99822.18
2018-09-20T15:14:23.475Z,99820.17
2018-09-20T15:16:58.386Z,99813.20
2018-09-20T15:19:34.240Z,99814.91
2018-09-20T15:22:07.664Z,99818.28
2018-09-20T15:24:44.821Z,99812.25
2018-09-20T15:27:19.016Z,99805.33
2018-09-20T15:30:00.282Z,99805.98
2018-09-20T15:32:38.058Z,99800.52
2018-09-20T15:35:18.622Z,99798.46
2018-09-20T15:38:01.569Z,99797.00
2018-09-20T15:40:40.136Z,99791.73
2018-09-20T15:43:15.105Z,99796.58
2018-09-20T15:45:51.251Z,99796.55
2018-09-20T15:48:29.033Z,99782.61
2018-09-20T15:51:01.714Z,99771.98
2018-09-20T15:53:34.671Z,99776.03
2018-09-20T15:56:09.167Z,99773.95
2018-09-20T15:58:41.880Z,99773.30
2018-09-20T16:01:17.309Z,99778.19
2018-09-20T16:03:52.496Z,99770.83
2018-09-20T16:06:27.984Z,99772.22
2018-09-20T16:09:09.192Z,99770.95
2018-09-20T16:11:43.682Z,99773.16
2018-09-20T16:14:16.266Z,99777.52
2018-09-20T16:16:49.833Z,99770.64
2018-09-20T16:19:23.241Z,99766.79
2018-09-20T16:21:56.555Z,99761.98
2018-09-20T16:24:30.081Z,99757.83
2018-09-20T16:27:03.414Z,99745.48
2018-09-20T16:30:17.722Z,99741.28
2018-09-20T16:33:45.476Z,99738.09
2018-09-20T16:36:52.185Z,99733.58
2018-09-20T16:39:28.632Z,99728.05
2018-09-20T16:42:07.289Z,99719.78
2018-09-20T16:44:42.162Z,99718.99
2018-09-20T16:47:15.324Z,99709.83
2018-09-20T16:49:48.945Z,99711.57
2018-09-20T16:52:21.765Z,99703.89
2018-09-20T16:54:56.254Z,99705.50
2018-09-20T16:57:28.884Z,99702.05
2018-09-20T17:00:09.944Z,99707.36
2018-09-20T17:02:45.734Z,99707.07
2018-09-20T17:05:21.791Z,99702.61
2018-09-20T17:07:55.407Z,99703.13
2018-09-20T17:10:29.639Z,99696.64
2018-09-20T17:13:03.538Z,99697.91
2018-09-20T17:15:38.016Z,99693.18
2018-09-20T17:18:12.605Z,99698.23
2018-09-20T17:20:45.716Z,99692.27
2018-09-20T17:23:20.559Z,99690.98
2018-09-20T17:25:58.546Z,99696.56
2018-09-20T17:28:34.717Z,99692.95
2018-09-20T17:31:10.229Z,99689.69
2018-09-20T17:33:55.215Z,99685.48
2018-09-20T17:36:53.949Z,99683.35
2018-09-20T17:40:04.244Z,99690.53
2018-09-20T17:42:50.797Z,99685.09
2018-09-20T17:45:39.168Z,99688.77
2018-09-20T17:48:35.912Z,99690.88
2018-09-20T17:51:23.036Z,99691.06
2018-09-20T17:54:10.112Z,99689.82
2018-09-20T17:57:12.982Z,99685.80
2018-09-20T18:00:21.222Z,99680.59
2018-09-20T18:02:57.672Z,99676.91
2018-09-20T18:05:32.732Z,99676.95
2018-09-20T18:08:13.106Z,99677.13
2018-09-20T18:10:49.293Z,99675.33
2018-09-20T18:13:24.360Z,99674.56
2018-09-20T18:15:57.821Z,99671.17
2018-09-20T18:18:31.337Z,99664.69
2018-09-20T18:21:09.847Z,99666.92
2018-09-20T18:23:43.509Z,99667.05
2018-09-20T18:26:16.191Z,99661.47
2018-09-20T18:28:48.792Z,99665.23
2018-09-20T18:31:22.349Z,99660.16
2018-09-20T18:33:55.335Z,99659.60
2018-09-20T18:36:27.975Z,99656.27
2018-09-20T18:39:03.829Z,99655.56
2018-09-20T18:41:44.451Z,99652.91
2018-09-20T18:44:20.285Z,99658.23
2018-09-20T18:46:53.859Z,99653.67
2018-09-20T18:49:26.705Z,99651.26
2018-09-20T18:52:00.033Z,99654.45
2018-09-20T18:54:35.241Z,99650.98
2018-09-20T18:57:09.645Z,99650.19
2018-09-20T18:59:42.819Z,99650.81
2018-09-20T19:02:17.317Z,99652.09
2018-09-20T19:04:51.094Z,99657.05
2018-09-20T19:07:23.604Z,99657.44
2018-09-20T19:09:59.935Z,99658.40
2018-09-20T19:12:34.573Z,99648.69
2018-09-20T19:15:13.899Z,99652.13
2018-09-20T19:17:48.987Z,99648.92
2018-09-20T19:20:24.445Z,99645.57
2018-09-20T19:23:00.033Z,99641.33
2018-09-20T19:25:37.428Z,99633.86
2018-09-20T19:28:11.669Z,99635.95
2018-09-20T19:30:49.369Z,99636.13
2018-09-20T19:33:26.612Z,99633.84
2018-09-20T19:36:03.874Z,99634.52
2018-09-20T19:38:39.889Z,99633.12
2018-09-20T19:41:13.584Z,99623.63
2018-09-20T19:43:47.932Z,99623.16
2018-09-20T19:46:21.917Z,99625.57
2018-09-20T19:48:55.948Z,99626.45
2018-09-20T19:51:28.809Z,99627.34
2018-09-20T19:54:06.982Z,99622.62
2018-09-20T19:56:42.766Z,99625.89
2018-09-20T19:59:19.341Z,99619.20
2018-09-20T20:01:53.336Z,99617.83
2018-09-20T20:04:29.747Z,99612.44
2018-09-20T20:07:03.760Z,99615.27
2018-09-20T20:09:36.891Z,99614.09
2018-09-20T20:12:21.725Z,99615.80
2018-09-20T20:14:55.861Z,99612.87
2018-09-20T20:17:29.870Z,99607.75
2018-09-20T20:20:04.824Z,99609.97
2018-09-20T20:23:09.552Z,99598.61
2018-09-20T20:25:46.410Z,99596.37
2018-09-20T20:28:19.389Z,99595.45
2018-09-20T20:30:53.820Z,99593.33
2018-09-20T20:33:26.816Z,99588.86
2018-09-20T20:36:06.795Z,99590.56
2018-09-20T20:38:41.292Z,99585.41
2018-09-20T20:41:16.072Z,99589.36
2018-09-20T20:43:49.886Z,99581.19
2018-09-20T20:46:24.601Z,99578.59
2018-09-20T20:48:57.239Z,99578.54
2018-09-20T20:51:31.263Z,99577.52
2018-09-20T20:54:06.036Z,99576.81
2018-09-20T20:56:39.032Z,99575.84
2018-09-20T20:59:13.728Z,99568.02
2018-09-20T21:01:46.302Z,99566.56
2018-09-20T21:04:27.265Z,99562.54
2018-09-20T21:07:02.975Z,99563.37
2018-09-20T21:09:46.530Z,99562.95
2018-09-20T21:12:25.985Z,99558.17
2018-09-20T21:15:04.649Z,99548.98
2018-09-20T21:17:41.393Z,99542.13
2018-09-20T21:20:14.196Z,99547.64
2018-09-20T21:22:47.479Z,99544.65
2018-09-20T21:25:20.041Z,99541.39
2018-09-20T21:27:54.331Z,99542.92
2018-09-20T21:30:29.328Z,99536.41
2018-09-20T21:33:03.442Z,99533.33
2018-09-20T21:35:40.563Z,99529.54
2018-09-20T21:38:15.606Z,99527.31
2018-09-20T21:40:52.626Z,99520.80
2018-09-20T21:43:25.293Z,99512.63
2018-09-20T21:45:59.937Z,99507.90
2018-09-20T21:48:33.933Z,99512.03
2018-09-20T21:51:22.448Z,99506.60
2018-09-20T21:53:55.620Z,99502.41
2018-09-20T21:56:31.720Z,99504.98
2018-09-20T21:59:06.994Z,99502.84
2018-09-20T22:01:46.644Z,99495.42
2018-09-20T22:04:19.154Z,99486.70
2018-09-20T22:06:52.637Z,99485.89
2018-09-20T22:09:25.491Z,99488.61
2018-09-20T22:11:59.584Z,99481.24
2018-09-20T22:14:35.464Z,99477.92
2018-09-20T22:17:12.100Z,99471.69
2018-09-20T22:19:46.089Z,99471.25
2018-09-20T22:22:18.789Z,99462.05
2018-09-20T22:24:54.854Z,99458.64
2018-09-20T22:27:28.279Z,99453.80
2018-09-20T22:30:02.957Z,99446.44
2018-09-20T22:32:36.811Z,99440.40
2018-09-20T22:35:11.541Z,99438.54
2018-09-20T22:37:47.144Z,99435.09
2018-09-20T22:40:19.932Z,99428.06
2018-09-20T22:42:55.776Z,99428.51
2018-09-20T22:45:29.642Z,99422.86
2018-09-20T22:48:03.564Z,99419.62
2018-09-20T22:50:37.504Z,99416.61
2018-09-20T22:53:10.393Z,99402.02
2018-09-20T22:55:43.529Z,99414.72
2018-09-20T22:58:16.603Z,99405.25
2018-09-20T23:00:52.133Z,99394.20
2018-09-20T23:03:24.821Z,99396.97
2018-09-20T23:05:57.760Z,99390.54
2018-09-20T23:08:30.304Z,99393.70
2018-09-20T23:11:04.020Z,99388.30
2018-09-20T23:13:38.829Z,99382.39
2018-09-20T23:16:13.732Z,99379.58
2018-09-20T23:18:46.473Z,99385.91
2018-09-20T23:21:21.740Z,99378.78
2018-09-20T23:23:56.641Z,99380.03
2018-09-20T23:26:30.041Z,99376.50
2018-09-20T23:29:04.780Z,99369.55
2018-09-20T23:31:37.432Z,99373.94
2018-09-20T23:34:10.047Z,99368.96
2018-09-20T23:36:42.887Z,99366.16
2018-09-20T23:39:15.472Z,99366.80
2018-09-20T23:41:47.984Z,99359.73
2018-09-20T23:44:22.051Z,99363.16
2018-09-20T23:46:54.581Z,99350.38
2018-09-20T23:49:27.276Z,99352.52
2018-09-20T23:52:00.305Z,99350.63
2018-09-20T23:54:32.976Z,99349.05
2018-09-20T23:57:06.296Z,99348.88
2018-09-20T23:59:40.377Z,99345.16
